Time;durP1;ratioP1;P1;durP2;ratioP2;P2;SDS_P1;SDS_P2;PMS_P1;PMS_P2;Temp;Humidity;BMP_temperature;BMP_pressure;BME280_temperature;BME280_humidity;BME280_pressure;Samples;Min_cycle;Max_cycle;Signal;HPM_P1;HPM_P2
2023/10/08 00:01:13;;;;;;;1.45;0.35;;;13.70;99.90;;;;;;5044505;28;20053;-56
2023/10/08 00:03:40;;;;;;;2.00;0.70;;;13.60;99.90;;;;;;5046712;28;20390;-56
2023/10/08 00:06:06;;;;;;;0.50;0.30;;;13.70;99.90;;;;;;5045912;28;20041;-56
2023/10/08 00:08:33;;;;;;;0.82;0.32;;;13.60;99.90;;;;;;5046896;28;20354;-56
2023/10/08 00:11:06;;;;;;;1.70;0.40;;;13.60;99.90;;;;;;5045934;28;20068;-56
2023/10/08 00:13:35;;;;;;;1.00;0.40;;;13.60;99.90;;;;;;5046270;28;20099;-56
2023/10/08 00:16:01;;;;;;;2.30;0.30;;;13.60;99.90;;;;;;5046084;28;20159;-56
2023/10/08 00:18:28;;;;;;;1.45;0.60;;;13.60;99.90;;;;;;5046625;28;20127;-56
2023/10/08 00:21:16;;;;;;;1.05;0.40;;;13.70;99.90;;;;;;5046363;28;20091;-56
2023/10/08 00:23:43;;;;;;;0.88;0.35;;;13.70;99.90;;;;;;5046730;28;20161;-56
2023/10/08 00:26:09;;;;;;;1.10;0.30;;;13.70;99.90;;;;;;5046075;28;20063;-56
2023/10/08 00:28:35;;;;;;;2.05;0.50;;;13.70;99.90;;;;;;5046433;28;20591;-56
2023/10/08 00:31:11;;;;;;;1.15;0.45;;;13.90;99.90;;;;;;5044129;28;20128;-56
2023/10/08 00:33:37;;;;;;;2.03;0.38;;;13.80;99.90;;;;;;5046584;28;20080;-58
2023/10/08 00:36:17;;;;;;;3.30;0.50;;;13.80;99.90;;;;;;5078501;28;20622;-56
2023/10/08 00:38:44;;;;;;;1.50;0.55;;;13.80;99.90;;;;;;5046516;28;20045;-56
2023/10/08 00:41:15;;;;;;;2.20;0.60;;;13.80;99.90;;;;;;5046014;28;20045;-57
2023/10/08 00:43:41;;;;;;;2.85;0.60;;;13.80;99.90;;;;;;5046149;28;20045;-56
2023/10/08 00:46:22;;;;;;;1.92;0.60;;;13.70;99.90;;;;;;5048776;28;20045;-56
2023/10/08 00:48:51;;;;;;;1.20;0.63;;;13.60;99.90;;;;;;5049059;28;20106;-55
2023/10/08 00:54:06;;;;;;;2.53;0.70;;;13.70;99.90;;;;;;5048959;28;20052;-56
2023/10/08 00:59:21;;;;;;;2.10;0.63;;;13.70;99.90;;;;;;5050328;28;20473;-57
2023/10/08 01:02:00;;;;;;;2.70;0.70;;;13.70;99.90;;;;;;5049429;28;20489;-56
2023/10/08 01:04:26;;;;;;;8.02;0.73;;;13.70;99.90;;;;;;5048637;28;20052;-56
2023/10/08 01:07:01;;;;;;;2.92;0.90;;;13.70;99.90;;;;;;5049571;28;20041;-56
2023/10/08 01:10:10;;;;;;;2.15;0.82;;;13.60;99.90;;;;;;5049021;28;20405;-56
2023/10/08 01:12:23;;;;;;;3.72;0.70;;;13.60;99.90;;;;;;5046930;28;20052;-57
2023/10/08 01:14:53;;;;;;;1.33;0.60;;;13.60;99.90;;;;;;5050217;28;20144;-56
2023/10/08 01:17:26;;;;;;;3.63;0.57;;;13.60;99.90;;;;;;5049302;28;20060;-58
2023/10/08 01:22:53;;;;;;;4.15;0.70;;;13.60;99.90;;;;;;5046815;28;20052;-56
2023/10/08 01:25:24;;;;;;;3.33;0.68;;;13.40;99.90;;;;;;5049393;28;20408;-56
2023/10/08 01:27:55;;;;;;;3.72;0.82;;;13.50;99.90;;;;;;5048209;28;20580;-56
2023/10/08 01:30:21;;;;;;;3.95;0.82;;;13.60;99.90;;;;;;5047999;28;20123;-57
2023/10/08 01:32:46;;;;;;;3.38;0.82;;;13.60;99.90;;;;;;5049952;28;20124;-56
2023/10/08 01:35:22;;;;;;;4.25;0.80;;;13.50;99.90;;;;;;5049046;28;20086;-57
2023/10/08 01:37:52;;;;;;;5.50;0.85;;;13.70;99.90;;;;;;5049793;28;20493;-54
2023/10/08 01:40:18;;;;;;;5.20;1.00;;;13.50;99.90;;;;;;5049730;28;20045;-55
2023/10/08 01:42:45;;;;;;;4.10;1.17;;;13.60;99.90;;;;;;5047732;28;20094;-56
2023/10/08 01:45:13;;;;;;;4.25;0.82;;;13.60;99.90;;;;;;5047166;28;20128;-58
2023/10/08 01:47:39;;;;;;;3.60;0.82;;;13.60;99.90;;;;;;5049330;28;20508;-56
2023/10/08 01:50:11;;;;;;;5.45;0.80;;;13.60;99.90;;;;;;5049133;28;20045;-56
2023/10/08 01:52:36;;;;;;;3.78;0.60;;;13.50;99.90;;;;;;5049098;28;20075;-56
2023/10/08 01:55:02;;;;;;;2.92;0.70;;;13.40;99.90;;;;;;5048569;28;20510;-56
2023/10/08 01:57:28;;;;;;;3.70;1.00;;;13.40;99.90;;;;;;5048559;28;20091;-57
2023/10/08 01:59:54;;;;;;;5.45;0.75;;;13.50;99.90;;;;;;5048512;28;20045;-55
2023/10/08 02:02:19;;;;;;;4.38;0.80;;;13.50;99.90;;;;;;5048470;28;20041;-56
2023/10/08 02:04:45;;;;;;;4.45;0.90;;;13.80;99.90;;;;;;5047437;28;20052;-56
2023/10/08 02:07:12;;;;;;;5.03;0.85;;;13.50;99.90;;;;;;5079910;28;20049;-56
2023/10/08 02:09:41;;;;;;;2.92;1.00;;;13.60;99.90;;;;;;5048719;28;20057;-56
2023/10/08 02:12:08;;;;;;;3.00;0.82;;;13.60;99.90;;;;;;5048040;28;20081;-56
2023/10/08 02:14:35;;;;;;;3.15;0.93;;;13.60;99.90;;;;;;5048122;28;20057;-56
2023/10/08 02:17:06;;;;;;;3.90;0.93;;;13.60;99.90;;;;;;5046180;28;20045;-56
2023/10/08 02:19:32;;;;;;;4.53;1.00;;;13.50;99.90;;;;;;5048714;28;20056;-56
2023/10/08 02:21:58;;;;;;;5.00;1.00;;;13.50;99.90;;;;;;5047708;28;20401;-55
2023/10/08 02:24:24;;;;;;;7.60;1.17;;;13.50;99.90;;;;;;5048475;28;20075;-55
2023/10/08 02:26:51;;;;;;;5.35;1.00;;;13.40;99.90;;;;;;5049041;28;20498;-56
2023/10/08 02:29:17;;;;;;;3.90;1.10;;;13.60;99.90;;;;;;5048462;28;20083;-56
2023/10/08 02:31:43;;;;;;;5.30;0.95;;;13.30;99.90;;;;;;5046928;28;20092;-57
2023/10/08 02:34:09;;;;;;;5.57;1.05;;;13.30;99.90;;;;;;5047942;28;20041;-56
2023/10/08 02:36:40;;;;;;;8.10;1.20;;;13.40;99.90;;;;;;5048224;28;20699;-56
2023/10/08 02:39:13;;;;;;;5.90;1.02;;;13.40;99.90;;;;;;5046279;28;20079;-55
2023/10/08 02:41:41;;;;;;;7.38;1.00;;;13.40;99.90;;;;;;5046691;28;20053;-55
2023/10/08 02:44:11;;;;;;;5.88;1.10;;;13.40;99.90;;;;;;5047620;28;20049;-56
2023/10/08 02:46:41;;;;;;;9.68;1.48;;;13.40;99.90;;;;;;5046719;28;20037;-56
2023/10/08 02:49:12;;;;;;;4.72;0.90;;;13.40;99.90;;;;;;5047588;28;20070;-56
2023/10/08 02:51:44;;;;;;;8.57;1.25;;;13.40;99.90;;;;;;5047744;28;20041;-56
2023/10/08 02:54:18;;;;;;;2.88;0.70;;;13.50;99.90;;;;;;5046815;28;20060;-56
2023/10/08 02:56:51;;;;;;;9.43;1.33;;;13.40;99.90;;;;;;5047305;28;20367;-57
2023/10/08 02:59:16;;;;;;;5.65;1.13;;;13.50;99.90;;;;;;5047451;28;20212;-56
2023/10/08 03:01:42;;;;;;;3.65;1.00;;;13.50;99.90;;;;;;5046861;28;20033;-55
2023/10/08 03:04:20;;;;;;;5.65;1.15;;;13.90;99.90;;;;;;5047673;28;20048;-55
2023/10/08 03:06:52;;;;;;;5.78;1.30;;;13.50;99.90;;;;;;5046595;28;20052;-55
2023/10/08 03:09:31;;;;;;;4.82;1.05;;;13.30;99.90;;;;;;5047941;28;20041;-55
2023/10/08 03:11:58;;;;;;;4.78;1.10;;;13.30;99.90;;;;;;5046535;28;20404;-56
2023/10/08 03:14:26;;;;;;;4.72;1.52;;;13.30;99.90;;;;;;5047641;28;20638;-55
2023/10/08 03:16:53;;;;;;;4.05;1.00;;;13.30;99.90;;;;;;5046693;28;20055;-57
2023/10/08 03:19:21;;;;;;;6.43;1.38;;;13.30;99.90;;;;;;5047747;28;20048;-56
2023/10/08 03:21:50;;;;;;;8.70;1.00;;;13.40;99.90;;;;;;5047881;28;20045;-56
2023/10/08 03:27:12;;;;;;;8.05;1.17;;;13.40;99.90;;;;;;5046586;28;20049;-56
2023/10/08 03:29:41;;;;;;;6.85;1.00;;;13.50;99.90;;;;;;5046890;28;20048;-56
2023/10/08 03:32:15;;;;;;;5.13;1.20;;;13.50;99.90;;;;;;5046280;28;20051;-56
2023/10/08 03:34:46;;;;;;;5.38;1.30;;;13.40;99.90;;;;;;5047064;28;20053;-56
2023/10/08 03:37:21;;;;;;;6.55;1.25;;;13.40;99.90;;;;;;5045736;28;20049;-55
2023/10/08 03:40:21;;;;;;;8.45;1.20;;;13.40;99.90;;;;;;5046946;28;20052;-56
2023/10/08 03:42:49;;;;;;;5.28;1.02;;;13.50;99.90;;;;;;5046929;28;20433;-55
2023/10/08 03:45:22;;;;;;;10.02;1.30;;;13.40;99.90;;;;;;5045577;28;20136;-56
2023/10/08 03:48:02;;;;;;;4.03;1.20;;;13.50;99.90;;;;;;5046741;28;20045;-55
2023/10/08 03:50:40;;;;;;;6.13;1.00;;;13.50;99.90;;;;;;5046027;28;20086;-56
2023/10/08 03:53:11;;;;;;;7.45;1.17;;;13.50;99.90;;;;;;5046433;28;20045;-56
2023/10/08 03:55:40;;;;;;;4.55;0.85;;;13.50;99.90;;;;;;5044247;28;20048;-56
2023/10/08 03:58:10;;;;;;;5.00;1.27;;;13.80;99.90;;;;;;5042125;28;20044;-56
2023/10/08 04:00:41;;;;;;;9.85;1.30;;;13.50;99.90;;;;;;5045996;28;20037;-55
2023/10/08 04:03:11;;;;;;;8.82;1.10;;;13.60;99.90;;;;;;5046124;28;20400;-55
2023/10/08 04:05:44;;;;;;;6.30;1.02;;;13.30;99.90;;;;;;5046351;28;20493;-56
2023/10/08 04:08:42;;;;;;;8.90;1.48;;;13.30;99.90;;;;;;5045174;28;20060;-56
2023/10/08 04:11:22;;;;;;;6.10;1.15;;;13.20;99.90;;;;;;5046174;28;20048;-56
2023/10/08 04:13:48;;;;;;;6.15;1.15;;;13.30;99.90;;;;;;5046140;28;20053;-56
2023/10/08 04:16:18;;;;;;;6.05;1.15;;;13.30;99.90;;;;;;5045660;28;20049;-55
2023/10/08 04:18:45;;;;;;;6.35;1.33;;;13.30;99.90;;;;;;5047540;28;20358;-55
2023/10/08 04:21:12;;;;;;;5.65;1.10;;;13.40;99.90;;;;;;5050073;28;20610;-54
2023/10/08 04:23:40;;;;;;;8.88;1.30;;;13.20;99.90;;;;;;5050599;28;20061;-56
2023/10/08 04:26:06;;;;;;;8.50;1.60;;;13.20;99.90;;;;;;5050802;28;20128;-55
2023/10/08 04:28:34;;;;;;;7.53;1.30;;;13.20;99.90;;;;;;5050468;28;20052;-55
2023/10/08 04:31:01;;;;;;;4.35;1.10;;;13.20;99.90;;;;;;5048008;28;20053;-55
2023/10/08 04:33:31;;;;;;;8.32;1.40;;;13.20;99.90;;;;;;5050574;28;20056;-56
2023/10/08 04:36:01;;;;;;;9.63;1.42;;;13.20;99.90;;;;;;5048842;28;20045;-56
2023/10/08 04:38:28;;;;;;;6.15;1.20;;;13.10;99.90;;;;;;5050600;28;20470;-56
2023/10/08 04:40:55;;;;;;;5.18;1.23;;;13.10;99.90;;;;;;5050384;28;20362;-57
2023/10/08 04:43:27;;;;;;;6.40;1.40;;;13.20;99.90;;;;;;5049762;28;20045;-57
2023/10/08 04:46:04;;;;;;;7.78;1.20;;;13.20;99.90;;;;;;5049015;28;20125;-56
2023/10/08 04:48:32;;;;;;;7.78;1.48;;;13.30;99.90;;;;;;5048647;28;20369;-56
2023/10/08 04:50:59;;;;;;;5.10;1.25;;;13.30;99.90;;;;;;5049538;28;20120;-56
2023/10/08 04:53:31;;;;;;;7.95;1.48;;;13.30;99.90;;;;;;5049696;28;20086;-56
2023/10/08 04:56:02;;;;;;;183.70;159.05;;;13.30;99.90;;;;;;5049137;28;20083;-57
2023/10/08 04:58:33;;;;;;;6.80;1.17;;;13.30;99.90;;;;;;5049782;28;20048;-56
2023/10/08 05:01:17;;;;;;;10.30;1.30;;;13.30;99.90;;;;;;5047897;28;20045;-57
2023/10/08 05:14:28;;;;;;;;;;;14.00;99.90;;;;;;5027644;28;25114;-56
2023/10/08 05:17:22;;;;;;;;;;;13.30;99.90;;;;;;5059842;28;25091;-56
2023/10/08 05:19:50;;;;;;;;;;;13.30;99.90;;;;;;5028949;28;25084;-56
2023/10/08 05:28:08;;;;;;;;;;;13.30;99.90;;;;;;5028246;28;25060;-56
2023/10/08 05:38:15;;;;;;;;;;;13.30;99.90;;;;;;5019440;28;25072;-55
2023/10/08 05:41:04;;;;;;;;;;;13.40;99.90;;;;;;5019224;28;25124;-56
2023/10/08 05:49:01;;;;;;;;;;;13.30;99.90;;;;;;5019665;28;25084;-56
2023/10/08 06:13:04;;;;;;;;;;;13.90;99.90;;;;;;5040042;28;25064;-57
2023/10/08 06:16:31;;;;;;;;;;;13.30;99.90;;;;;;5071558;28;25131;-57
2023/10/08 06:18:28;;;;;;;;;;;13.30;99.90;;;;;;5030585;28;25066;-57
2023/10/08 06:21:00;;;;;;;;;;;13.30;99.90;;;;;;5038461;28;25073;-57
2023/10/08 06:23:28;;;;;;;;;;;13.40;99.90;;;;;;5038193;28;25073;-57
2023/10/08 06:25:56;;;;;;;;;;;13.40;99.90;;;;;;5038357;28;25051;-56
2023/10/08 06:28:25;;;;;;;;;;;14.40;99.90;;;;;;5038284;28;25140;-57
2023/10/08 06:30:55;;;;;;;;;;;13.40;99.90;;;;;;5036095;28;25079;-56
2023/10/08 06:33:22;;;;;;;;;;;13.40;99.90;;;;;;5038576;28;25084;-56
2023/10/08 06:36:01;;;;;;;;;;;13.40;99.90;;;;;;5037448;28;25085;-56
2023/10/08 06:38:30;;;;;;;;;;;13.80;99.90;;;;;;5038501;28;25116;-56
2023/10/08 06:40:59;;;;;;;;;;;13.50;99.90;;;;;;5038107;28;25137;-56
2023/10/08 06:43:26;;;;;;;;;;;13.50;99.90;;;;;;5035383;28;25080;-56
2023/10/08 06:45:58;;;;;;;;;;;14.30;99.90;;;;;;5035885;28;25073;-56
2023/10/08 06:48:24;;;;;;;;;;;13.50;99.90;;;;;;5037758;28;25123;-58
2023/10/08 06:50:50;;;;;;;;;;;13.60;99.90;;;;;;5039193;28;25172;-56
2023/10/08 06:53:18;;;;;;;;;;;13.70;99.90;;;;;;5038037;28;25068;-56
2023/10/08 06:55:44;;;;;;;;;;;14.10;99.90;;;;;;5038461;28;25079;-56
2023/10/08 06:58:11;;;;;;;;;;;13.90;99.90;;;;;;5038492;28;25094;-55
2023/10/08 07:00:40;;;;;;;;;;;13.80;99.90;;;;;;5037407;28;25070;-56
2023/10/08 07:03:15;;;;;;;;;;;13.80;99.90;;;;;;5038597;28;25068;-55
2023/10/08 07:06:00;;;;;;;;;;;13.80;99.90;;;;;;5040497;28;25074;-56
2023/10/08 07:08:31;;;;;;;;;;;13.90;99.90;;;;;;5040382;28;25128;-55
2023/10/08 07:10:58;;;;;;;;;;;13.90;99.90;;;;;;5038389;28;25071;-55
2023/10/08 07:13:24;;;;;;;;;;;13.90;99.90;;;;;;5039188;28;25141;-55
2023/10/08 07:15:50;;;;;;;;;;;14.00;99.90;;;;;;5039393;28;25066;-55
2023/10/08 07:18:24;;;;;;;;;;;14.10;99.90;;;;;;5038651;28;25097;-55
2023/10/08 07:20:53;;;;;;;;;;;14.40;99.90;;;;;;5039866;28;25173;-56
2023/10/08 07:23:19;;;;;;;;;;;14.30;99.90;;;;;;5040674;28;25064;-56
2023/10/08 07:25:52;;;;;;;;;;;14.40;99.90;;;;;;5039126;28;25080;-56
2023/10/08 07:28:19;;;;;;;;;;;14.40;99.90;;;;;;5040508;28;25114;-56
2023/10/08 07:30:45;;;;;;;;;;;14.40;99.90;;;;;;5039562;28;25079;-56
2023/10/08 07:33:24;;;;;;;;;;;14.50;99.90;;;;;;5039911;28;25062;-56
2023/10/08 07:36:34;;;;;;;;;;;14.50;99.90;;;;;;5039600;28;25087;-55
2023/10/08 07:38:42;;;;;;;;;;;14.50;99.90;;;;;;5037218;28;24880;-56
2023/10/08 07:41:09;;;;;;;;;;;14.50;99.90;;;;;;5040185;28;25149;-55
2023/10/08 07:43:35;;;;;;;;;;;14.50;99.90;;;;;;5040335;28;25065;-56
2023/10/08 07:46:00;;;;;;;;;;;14.50;99.90;;;;;;5038251;28;25090;-57
2023/10/08 07:48:29;;;;;;;;;;;14.80;99.90;;;;;;5039155;28;25152;-56
2023/10/08 07:50:56;;;;;;;;;;;14.30;99.90;;;;;;5039025;28;25061;-56
2023/10/08 07:53:24;;;;;;;;;;;14.40;99.90;;;;;;5038509;28;25094;-58
2023/10/08 07:55:50;;;;;;;;;;;14.80;99.90;;;;;;5038501;28;25082;-56
2023/10/08 07:58:16;;;;;;;;;;;14.40;99.90;;;;;;5039223;28;25073;-56
2023/10/08 08:00:42;;;;;;;;;;;14.50;99.90;;;;;;5038383;28;25060;-57
2023/10/08 08:03:07;;;;;;;;;;;14.50;99.90;;;;;;5039647;28;25126;-57
2023/10/08 08:05:33;;;;;;;;;;;14.50;99.90;;;;;;5039844;28;25079;-56
2023/10/08 08:08:05;;;;;;;;;;;14.60;99.90;;;;;;5039473;28;25082;-57
2023/10/08 08:10:36;;;;;;;;;;;14.50;99.90;;;;;;5037980;28;25125;-56
2023/10/08 08:13:06;;;;;;;;;;;14.40;99.90;;;;;;5039682;28;25112;-56
2023/10/08 08:15:33;;;;;;;;;;;14.50;99.90;;;;;;5039316;28;25105;-56
2023/10/08 08:17:58;;;;;;;;;;;14.50;99.90;;;;;;5039577;28;25146;-57
2023/10/08 08:20:34;;;;;;;;;;;14.60;99.90;;;;;;5038282;28;25093;-56
2023/10/08 08:23:06;;;;;;;;;;;14.60;99.90;;;;;;5039963;28;25067;-56
2023/10/08 08:28:28;;;;;;;;;;;14.90;99.90;;;;;;5035035;28;25149;-56
2023/10/08 08:30:55;;;;;;;;;;;15.00;99.90;;;;;;5033773;28;25136;-56
2023/10/08 08:33:24;;;;;;;;;;;15.10;99.90;;;;;;5035982;28;25076;-56
2023/10/08 08:36:00;;;;;;;;;;;15.10;99.90;;;;;;5034279;28;25128;-56
2023/10/08 08:38:26;;;;;;;;;;;15.20;99.90;;;;;;5035088;28;25092;-57
2023/10/08 08:41:06;;;;;;;;;;;15.10;99.90;;;;;;5035019;28;25069;-58
2023/10/08 08:43:33;;;;;;;;;;;15.20;99.90;;;;;;5035839;28;25079;-54
2023/10/08 08:45:59;;;;;;;;;;;15.20;99.90;;;;;;5034728;28;25062;-56
2023/10/08 08:48:26;;;;;;;;;;;15.20;99.90;;;;;;5036127;28;25057;-59
2023/10/08 08:50:52;;;;;;;;;;;15.30;99.90;;;;;;5034917;28;25071;-57
2023/10/08 08:53:19;;;;;;;;;;;15.30;99.90;;;;;;5035582;28;27124;-56
2023/10/08 08:55:46;;;;;;;;;;;15.40;99.90;;;;;;5033931;28;25134;-56
2023/10/08 08:58:12;;;;;;;;;;;15.60;99.90;;;;;;5033804;28;25080;-57
2023/10/08 09:00:38;;;;;;;;;;;15.50;99.90;;;;;;5033867;28;25102;-56
2023/10/08 09:03:06;;;;;;;;;;;15.50;99.90;;;;;;5033938;28;25357;-57
2023/10/08 09:05:40;;;;;;;;;;;15.50;99.90;;;;;;5036378;28;25059;-56
2023/10/08 09:08:06;;;;;;;;;;;15.60;99.90;;;;;;5038627;28;25077;-57
2023/10/08 09:10:51;;;;;;;;;;;15.80;99.90;;;;;;5037892;28;25146;-56
2023/10/08 09:13:20;;;;;;;;;;;16.00;99.90;;;;;;5038428;28;25091;-56
2023/10/08 09:15:46;;;;;;;;;;;16.30;99.90;;;;;;5038046;28;25060;-56
2023/10/08 09:18:14;;;;;;;;;;;16.30;99.90;;;;;;5037945;28;25079;-57
2023/10/08 09:20:43;;;;;;;;;;;16.30;99.90;;;;;;5038384;28;25149;-57
2023/10/08 09:23:12;;;;;;;;;;;16.30;99.90;;;;;;5037539;28;25069;-57
2023/10/08 09:25:41;;;;;;;;;;;16.40;99.90;;;;;;5038524;28;25079;-55
2023/10/08 09:28:07;;;;;;;;;;;16.50;99.90;;;;;;5038454;28;25073;-57
2023/10/08 09:30:39;;;;;;;;;;;17.20;99.90;;;;;;5036691;28;25121;-56
2023/10/08 09:33:06;;;;;;;;;;;17.10;99.90;;;;;;5036956;28;25073;-57
2023/10/08 09:35:32;;;;;;;;;;;17.60;99.90;;;;;;5038278;28;25119;-57
2023/10/08 09:37:58;;;;;;;;;;;18.00;99.90;;;;;;5038017;28;25076;-57
2023/10/08 09:40:24;;;;;;;;;;;17.90;99.60;;;;;;5038282;28;25083;-56
2023/10/08 09:42:50;;;;;;;;;;;17.70;99.20;;;;;;5038622;28;25083;-57
2023/10/08 09:45:15;;;;;;;;;;;17.70;99.30;;;;;;5036646;28;25062;-57
2023/10/08 09:47:43;;;;;;;;;;;17.60;99.20;;;;;;5037034;28;25114;-57
2023/10/08 09:50:11;;;;;;;;;;;17.50;99.40;;;;;;5037136;28;25116;-56
2023/10/08 09:52:44;;;;;;;;;;;17.50;99.10;;;;;;5037179;28;25087;-57
2023/10/08 09:55:10;;;;;;;;;;;17.40;98.10;;;;;;5037036;28;25105;-58
2023/10/08 09:57:36;;;;;;;;;;;17.30;98.00;;;;;;5037713;28;25100;-57
2023/10/08 10:00:04;;;;;;;;;;;17.10;98.40;;;;;;5036290;28;25064;-56
2023/10/08 10:02:31;;;;;;;;;;;17.00;98.40;;;;;;5036544;28;25150;-56
2023/10/08 10:04:56;;;;;;;;;;;16.90;99.00;;;;;;5037139;28;25082;-55
2023/10/08 10:07:22;;;;;;;;;;;17.20;99.90;;;;;;5037669;28;25073;-56
2023/10/08 10:09:53;;;;;;;;;;;16.80;99.70;;;;;;5069654;28;25135;-57
2023/10/08 10:12:25;;;;;;;;;;;16.90;99.40;;;;;;5037359;28;25170;-56
2023/10/08 10:14:55;;;;;;;;;;;16.90;99.70;;;;;;5035628;28;25100;-56
2023/10/08 10:17:22;;;;;;;;;;;17.00;99.50;;;;;;5035944;28;25156;-56
2023/10/08 10:19:59;;;;;;;;;;;17.00;99.20;;;;;;5036485;28;25087;-56
2023/10/08 10:22:29;;;;;;;;;;;16.80;98.80;;;;;;5037345;28;25063;-56
2023/10/08 10:24:56;;;;;;;;;;;16.70;98.20;;;;;;5036778;28;25129;-56
2023/10/08 10:27:22;;;;;;;;;;;16.60;98.00;;;;;;5037022;28;25150;-57
2023/10/08 10:29:48;;;;;;;;;;;16.60;98.00;;;;;;5036741;28;25063;-55
2023/10/08 10:32:18;;;;;;;;;;;16.60;98.60;;;;;;5036099;28;25086;-56
2023/10/08 10:34:47;;;;;;;;;;;16.70;98.20;;;;;;5031363;28;25085;-57
2023/10/08 10:37:22;;;;;;;;;;;16.70;98.30;;;;;;5036829;28;25107;-59
2023/10/08 10:39:54;;;;;;;;;;;16.90;98.80;;;;;;5036659;28;25169;-60
2023/10/08 10:42:20;;;;;;;;;;;16.90;98.20;;;;;;5037290;28;25138;-58
2023/10/08 10:44:49;;;;;;;;;;;16.90;98.20;;;;;;5036152;28;25071;-58
2023/10/08 10:49:53;;;;;;;;;;;16.90;97.60;;;;;;5035433;28;25067;-57
2023/10/08 10:52:31;;;;;;;;;;;16.90;97.50;;;;;;5036404;28;25054;-58
2023/10/08 10:55:06;;;;;;;;;;;17.10;97.80;;;;;;5035792;28;25074;-58
2023/10/08 10:57:41;;;;;;;;;;;17.30;97.30;;;;;;5036513;28;25067;-56
2023/10/08 11:02:52;;;;;;;;;;;17.60;96.70;;;;;;5035626;28;25071;-58
2023/10/08 11:05:19;;;;;;;;;;;17.70;96.20;;;;;;5067928;28;25070;-57
2023/10/08 11:07:48;;;;;;;;;;;17.60;96.70;;;;;;5036035;28;25107;-57
2023/10/08 11:10:15;;;;;;;;;;;17.60;96.80;;;;;;5035156;28;25121;-57
2023/10/08 11:12:52;;;;;;;;;;;17.60;96.50;;;;;;5033808;28;25071;-57
2023/10/08 11:15:17;;;;;;;;;;;17.50;96.00;;;;;;5034667;28;25070;-58
2023/10/08 11:17:44;;;;;;;;;;;17.70;96.30;;;;;;5035631;28;25071;-57
2023/10/08 11:20:25;;;;;;;;;;;17.40;95.80;;;;;;5034982;28;25116;-57
2023/10/08 11:22:53;;;;;;;;;;;17.40;94.90;;;;;;5035428;28;25103;-57
2023/10/08 11:25:22;;;;;;;;;;;17.60;95.50;;;;;;5034481;28;25109;-58
2023/10/08 11:27:48;;;;;;;;;;;17.20;96.60;;;;;;5035668;28;25126;-57
2023/10/08 11:30:14;;;;;;;;;;;17.30;95.80;;;;;;5033147;28;25063;-57
2023/10/08 11:32:48;;;;;;;;;;;17.30;95.60;;;;;;5033183;28;25069;-57
2023/10/08 11:35:17;;;;;;;;;;;17.20;95.20;;;;;;5034830;28;25057;-58
2023/10/08 11:37:50;;;;;;;;;;;17.20;95.20;;;;;;5025416;28;25121;-57
2023/10/08 11:43:15;;;;;;;;;;;17.20;95.00;;;;;;5034980;28;25121;-58
2023/10/08 11:45:50;;;;;;;;;;;17.10;95.40;;;;;;5034151;28;25079;-57
2023/10/08 11:48:25;;;;;;;;;;;17.40;95.80;;;;;;5034002;28;25104;-57
2023/10/08 11:50:51;;;;;;;;;;;17.30;95.40;;;;;;5034800;28;25067;-58
2023/10/08 11:53:19;;;;;;;;;;;17.30;95.10;;;;;;5035679;28;25064;-57
2023/10/08 11:55:44;;;;;;;;;;;17.30;95.50;;;;;;5034970;28;25065;-57
2023/10/08 11:58:10;;;;;;;;;;;17.40;94.60;;;;;;5033598;28;25075;-57
2023/10/08 12:00:44;;;;;;;;;;;17.40;94.70;;;;;;5034640;28;25075;-57
2023/10/08 12:03:10;;;;;;;;;;;17.30;95.30;;;;;;5035887;28;25068;-57
2023/10/08 12:05:37;;;;;;;;;;;17.30;95.60;;;;;;5035001;28;25168;-57
2023/10/08 12:08:08;;;;;;;;;;;17.50;95.90;;;;;;5034972;28;25065;-57
2023/10/08 12:10:34;;;;;;;;;;;17.60;95.10;;;;;;5067871;28;25078;-57
2023/10/08 12:13:00;;;;;;;;;;;17.90;94.90;;;;;;5035942;28;25088;-59
2023/10/08 12:15:38;;;;;;;;;;;17.50;94.50;;;;;;5034096;28;25076;-59
2023/10/08 12:18:15;;;;;;;;;;;17.50;95.00;;;;;;5048390;28;25067;-56
2023/10/08 12:20:45;;;;;;;;;;;17.60;94.90;;;;;;5035882;28;25072;-52
2023/10/08 12:23:11;;;;;;;;;;;17.60;95.20;;;;;;5035736;28;25057;-56
2023/10/08 12:25:37;;;;;;;;;;;17.60;95.50;;;;;;5035731;28;25126;-53
2023/10/08 12:28:04;;;;;;;;;;;17.70;95.00;;;;;;5033032;28;25081;-55
2023/10/08 12:30:41;;;;;;;;;;;17.80;95.20;;;;;;5034141;28;25062;-56
2023/10/08 12:33:07;;;;;;;;;;;17.90;94.80;;;;;;5067091;28;25078;-57
2023/10/08 12:35:32;;;;;;;;;;;17.90;94.90;;;;;;5036243;28;25101;-57
2023/10/08 12:37:58;;;;;;;;;;;17.90;94.70;;;;;;5035362;28;25170;-56
2023/10/08 12:40:23;;;;;;;;;;;17.90;94.40;;;;;;5036340;28;25132;-56
2023/10/08 12:42:50;;;;;;;;;;;17.60;94.90;;;;;;5039706;28;25117;-57
2023/10/08 12:45:20;;;;;;;;;;;17.60;95.70;;;;;;5036865;28;25087;-57
2023/10/08 12:47:50;;;;;;;;;;;17.70;95.50;;;;;;5038557;28;25077;-57
2023/10/08 12:51:06;;;;;;;;;;;17.70;95.40;;;;;;5037835;28;25177;-56
2023/10/08 12:53:04;;;;;;;;;;;17.80;95.50;;;;;;5034130;28;25101;-57
2023/10/08 12:55:30;;;;;;;;;;;18.00;95.40;;;;;;5039295;28;25166;-57
2023/10/08 12:58:03;;;;;;;;;;;18.20;95.20;;;;;;5038241;28;25083;-57
2023/10/08 13:00:29;;;;;;;;;;;18.40;95.10;;;;;;5038872;28;25129;-57
2023/10/08 13:02:54;;;;;;;;;;;18.60;94.80;;;;;;5040193;28;25162;-57
2023/10/08 13:05:26;;;;;;;;;;;18.60;94.20;;;;;;5041357;28;25086;-57
2023/10/08 13:07:54;;;;;;;;;;;18.60;94.20;;;;;;5040217;28;25066;-57
2023/10/08 13:10:21;;;;;;;;;;;18.70;94.40;;;;;;5039950;28;25071;-57
2023/10/08 13:12:47;;;;;;;;;;;18.70;94.60;;;;;;5044037;28;19925;-57
2023/10/08 13:15:13;;;;;;;;;;;18.70;94.10;;;;;;5037808;28;25084;-56
2023/10/08 13:17:42;;;;;;;;;;;18.70;93.70;;;;;;5038865;28;25075;-56
2023/10/08 13:20:14;;;;;;;;;;;18.60;93.10;;;;;;5037498;28;25078;-57
2023/10/08 13:22:40;;;;;;;;;;;18.20;93.70;;;;;;5035892;28;25075;-57
2023/10/08 13:25:06;;;;;;;;;;;18.10;93.80;;;;;;5038009;28;25076;-57
2023/10/08 13:27:32;;;;;;;;;;;18.00;93.70;;;;;;5038387;28;25161;-57
2023/10/08 13:29:58;;;;;;;;;;;17.90;94.20;;;;;;5036640;28;25105;-57
2023/10/08 13:32:24;;;;;;;;;;;17.60;94.60;;;;;;5038029;28;25071;-56
2023/10/08 13:34:49;;;;;;;;;;;17.50;94.70;;;;;;5038515;28;25133;-58
2023/10/08 13:37:15;;;;;;;;;;;17.60;94.50;;;;;;5037366;28;25114;-58
2023/10/08 13:39:41;;;;;;;;;;;17.50;94.70;;;;;;5037743;28;25116;-58
2023/10/08 13:42:07;;;;;;;;;;;17.50;94.50;;;;;;5037006;28;25061;-57
2023/10/08 13:44:32;;;;;;;;;;;17.50;94.60;;;;;;5036552;28;25115;-57
2023/10/08 13:46:59;;;;;;;;;;;17.60;94.80;;;;;;5036513;28;25154;-57
2023/10/08 13:49:26;;;;;;;;;;;17.60;95.20;;;;;;5036710;28;25125;-57
2023/10/08 13:51:55;;;;;;;;;;;17.70;95.30;;;;;;5036530;28;25073;-57
2023/10/08 13:54:21;;;;;;;;;;;17.80;94.50;;;;;;5037917;28;25057;-57
2023/10/08 13:56:50;;;;;;;;;;;17.70;94.40;;;;;;5037618;28;25131;-56
2023/10/08 13:59:16;;;;;;;;;;;17.70;95.50;;;;;;5036162;28;25141;-57
2023/10/08 14:01:45;;;;;;;;;;;18.00;95.80;;;;;;5037026;28;25127;-57
2023/10/08 14:04:11;;;;;;;;;;;18.20;95.30;;;;;;5036274;28;25117;-58
2023/10/08 14:06:40;;;;;;;;;;;18.20;95.30;;;;;;5036649;28;25145;-57
2023/10/08 14:09:12;;;;;;;;;;;18.20;95.40;;;;;;5035891;28;25077;-57
2023/10/08 14:11:37;;;;;;;;;;;18.20;94.90;;;;;;5036271;28;25061;-57
2023/10/08 14:14:07;;;;;;;;;;;18.10;95.40;;;;;;5036343;28;25074;-57
2023/10/08 14:16:34;;;;;;;;;;;18.10;95.60;;;;;;5036395;28;25089;-58
2023/10/08 14:18:59;;;;;;;;;;;18.00;95.80;;;;;;5037768;28;25077;-57
2023/10/08 14:21:30;;;;;;;;;;;17.80;96.00;;;;;;5036470;28;25033;-53
2023/10/08 14:23:56;;;;;;;;;;;17.80;96.00;;;;;;5035769;28;25093;-57
2023/10/08 14:26:22;;;;;;;;;;;17.70;97.00;;;;;;5037701;28;25078;-57
2023/10/08 14:28:52;;;;;;;;;;;17.80;97.20;;;;;;5036971;28;25067;-57
2023/10/08 14:31:22;;;;;;;;;;;17.90;97.40;;;;;;5036883;28;25119;-57
2023/10/08 14:34:18;;;;;;;;;;;18.00;97.40;;;;;;5036743;28;25087;-58
2023/10/08 14:44:56;;;;;;;;;;;17.70;96.80;;;;;;5035519;28;25074;-57
2023/10/08 14:47:22;;;;;;;;;;;17.70;96.70;;;;;;5036866;28;25161;-57
2023/10/08 14:49:47;;;;;;;;;;;17.50;96.90;;;;;;5036559;28;25149;-57
2023/10/08 14:52:13;;;;;;;;;;;17.60;97.00;;;;;;5036498;28;25075;-57
2023/10/08 14:54:39;;;;;;;;;;;17.50;97.20;;;;;;5036292;28;25067;-58
2023/10/08 14:57:05;;;;;;;;;;;17.50;97.20;;;;;;5033748;28;25069;-56
2023/10/08 14:59:34;;;;;;;;;;;17.60;97.20;;;;;;5035203;28;25073;-57
2023/10/08 15:01:59;;;;;;;;;;;17.60;97.10;;;;;;5033155;28;25063;-56
2023/10/08 15:04:28;;;;;;;;;;;17.50;97.00;;;;;;5034906;28;25070;-57
2023/10/08 15:06:57;;;;;;;;;;;17.60;97.30;;;;;;5035861;28;25060;-56
2023/10/08 15:09:23;;;;;;;;;;;17.50;97.30;;;;;;5036271;28;25139;-56
2023/10/08 15:11:52;;;;;;;;;;;17.40;97.10;;;;;;5035813;28;20721;-56
2023/10/08 15:14:19;;;;;;;;;;;17.40;97.20;;;;;;5034757;28;25082;-57
2023/10/08 15:16:46;;;;;;;;;;;17.40;97.40;;;;;;5035063;28;25075;-55
2023/10/08 15:19:15;;;;;;;;;;;17.30;97.50;;;;;;5035181;28;25073;-56